Time;durP1;ratioP1;P1;durP2;ratioP2;P2;SDS_P1;SDS_P2;PMS_P1;PMS_P2;Temp;Humidity;BMP_temperature;BMP_pressure;BME280_temperature;BME280_humidity;BME280_pressure;Samples;Min_cycle;Max_cycle;Signal;HPM_P1;HPM_P2
2023/12/20 00:01:56;;;;;;;14.98;1.73;;;;;;;;;;5047834;28;20511;-86
2023/12/20 00:04:22;;;;;;;12.20;2.30;;;;;;;;;;5033252;28;20051;-85
2023/12/20 00:06:48;;;;;;;26.45;4.43;;;;;;;;;;5049471;28;20075;-86
2023/12/20 00:09:14;;;;;;;17.23;2.30;;;;;;;;;;5033283;28;20055;-84
2023/12/20 00:11:42;;;;;;;10.00;2.13;;;;;;;;;;5062660;28;20055;-86
2023/12/20 00:14:08;;;;;;;15.02;1.95;;;;;;;;;;5067288;28;20078;-86
2023/12/20 00:16:34;;;;;;;12.20;2.13;;;;;;;;;;5049482;28;20561;-84
2023/12/20 00:19:00;;;;;;;12.82;2.20;;;;;;;;;;5048014;28;20081;-85
2023/12/20 00:21:26;;;;;;;11.27;2.20;;;;;;;;;;5036282;28;20036;-86
2023/12/20 00:23:52;;;;;;;14.05;2.28;;;;;;;;;;5049260;28;20044;-87
2023/12/20 00:26:18;;;;;;;19.58;2.53;;;;;;;;;;5050147;28;20055;-83
2023/12/20 00:28:44;;;;;;;13.80;2.75;;;;;;;;;;5047393;28;20052;-85
2023/12/20 00:31:11;;;;;;;13.95;3.33;;;;;;;;;;5067956;28;20044;-86
2023/12/20 00:33:37;;;;;;;18.27;2.58;;;;;;;;;;5032643;28;20040;-87
2023/12/20 00:36:03;;;;;;;13.95;2.85;;;;;;;;;;5050207;28;20114;-83
2023/12/20 00:38:29;;;;;;;9.65;2.25;;;;;;;;;;5036766;28;20441;-87
2023/12/20 00:40:55;;;;;;;11.30;2.05;;;;;;;;;;5038168;28;20442;-77
2023/12/20 00:43:21;;;;;;;18.27;3.03;;;;;;;;;;5068730;28;20563;-77
2023/12/20 00:45:47;;;;;;;12.63;2.05;;;;;;;;;;5051267;28;21216;-76
2023/12/20 00:48:13;;;;;;;18.50;2.97;;;;;;;;;;5067263;28;20544;-78
2023/12/20 00:50:39;;;;;;;19.20;2.60;;;;;;;;;;5063872;28;20047;-78
2023/12/20 00:53:05;;;;;;;14.20;2.35;;;;;;;;;;5056237;28;20483;-76
2023/12/20 00:55:31;;;;;;;11.70;2.28;;;;;;;;;;5067044;28;20036;-77
2023/12/20 00:57:59;;;;;;;21.48;4.78;;;;;;;;;;5064850;28;20036;-77
2023/12/20 01:00:25;;;;;;;21.25;2.42;;;;;;;;;;5066299;28;20119;-81
2023/12/20 01:02:51;;;;;;;14.70;2.42;;;;;;;;;;5052913;28;20123;-81
2023/12/20 01:05:19;;;;;;;18.60;2.20;;;;;;;;;;5050660;28;20039;-81
2023/12/20 01:07:45;;;;;;;17.55;1.90;;;;;;;;;;5047005;28;20040;-81
2023/12/20 01:10:11;;;;;;;11.18;2.60;;;;;;;;;;5050280;28;20050;-81
2023/12/20 01:12:37;;;;;;;12.80;2.08;;;;;;;;;;5063210;28;20072;-81
2023/12/20 01:15:03;;;;;;;11.07;2.15;;;;;;;;;;5048972;28;20106;-81
2023/12/20 01:17:29;;;;;;;20.48;3.88;;;;;;;;;;5054922;28;20032;-80
2023/12/20 01:19:55;;;;;;;8.85;2.63;;;;;;;;;;5039744;28;20128;-81
2023/12/20 01:22:21;;;;;;;15.93;2.40;;;;;;;;;;5053297;28;20051;-81
2023/12/20 01:24:47;;;;;;;9.35;2.03;;;;;;;;;;5068890;28;20124;-82
2023/12/20 01:27:13;;;;;;;17.77;2.45;;;;;;;;;;5054803;28;20063;-81
2023/12/20 01:29:39;;;;;;;14.93;2.47;;;;;;;;;;5038882;28;20056;-82
2023/12/20 01:32:06;;;;;;;15.95;2.88;;;;;;;;;;5069094;28;20087;-82
2023/12/20 01:34:32;;;;;;;20.23;2.47;;;;;;;;;;5053224;28;20078;-82
2023/12/20 01:36:58;;;;;;;18.90;2.72;;;;;;;;;;5050818;28;20040;-81
2023/12/20 01:39:24;;;;;;;20.27;2.55;;;;;;;;;;5054621;28;20070;-82
2023/12/20 01:41:50;;;;;;;19.35;2.35;;;;;;;;;;5034148;28;20051;-82
2023/12/20 01:44:16;;;;;;;17.85;2.15;;;;;;;;;;5054817;28;20060;-81
2023/12/20 01:46:42;;;;;;;18.52;3.60;;;;;;;;;;5050846;28;20048;-81
2023/12/20 01:49:09;;;;;;;14.20;2.58;;;;;;;;;;5054830;28;20068;-82
2023/12/20 01:51:35;;;;;;;16.15;1.98;;;;;;;;;;5066785;28;20047;-85
2023/12/20 01:54:02;;;;;;;16.75;3.30;;;;;;;;;;5052961;28;20106;-87
2023/12/20 01:56:29;;;;;;;14.45;2.58;;;;;;;;;;5037976;28;20459;-88
2023/12/20 01:58:56;;;;;;;16.27;2.55;;;;;;;;;;5068545;28;20041;-87
2023/12/20 02:01:22;;;;;;;24.10;3.25;;;;;;;;;;5067888;28;20043;-85
2023/12/20 02:03:49;;;;;;;17.35;2.50;;;;;;;;;;5039094;28;20043;-88
2023/12/20 02:06:15;;;;;;;16.40;2.33;;;;;;;;;;5068209;28;20047;-84
2023/12/20 02:08:41;;;;;;;18.42;2.00;;;;;;;;;;5071964;28;20131;-88
2023/12/20 02:11:08;;;;;;;13.13;2.83;;;;;;;;;;5067050;28;20036;-78
2023/12/20 02:13:34;;;;;;;17.70;2.70;;;;;;;;;;5068452;28;20380;-78
2023/12/20 02:16:00;;;;;;;13.05;2.03;;;;;;;;;;5051242;28;20054;-77
2023/12/20 02:18:27;;;;;;;17.27;2.95;;;;;;;;;;5052385;28;20036;-77
2023/12/20 02:20:53;;;;;;;21.67;3.40;;;;;;;;;;5049235;28;20032;-76
2023/12/20 02:23:19;;;;;;;22.05;3.53;;;;;;;;;;5067759;28;20040;-77
2023/12/20 02:25:45;;;;;;;17.98;2.05;;;;;;;;;;5049341;28;20085;-77
2023/12/20 02:28:11;;;;;;;20.10;2.67;;;;;;;;;;5051859;28;20059;-77
2023/12/20 02:30:37;;;;;;;19.33;3.10;;;;;;;;;;5033679;28;20072;-76
2023/12/20 02:33:08;;;;;;;24.15;4.25;;;;;;;;;;5048249;28;20048;-76
2023/12/20 02:35:34;;;;;;;22.38;4.80;;;;;;;;;;5048628;28;20040;-78
2023/12/20 02:38:00;;;;;;;15.60;3.40;;;;;;;;;;5050525;28;20075;-77
2023/12/20 02:40:26;;;;;;;22.30;3.30;;;;;;;;;;5050320;28;20036;-79
2023/12/20 02:42:53;;;;;;;18.15;2.40;;;;;;;;;;5052960;28;20040;-76
2023/12/20 02:45:19;;;;;;;17.38;3.42;;;;;;;;;;5062833;28;20459;-78
2023/12/20 02:47:45;;;;;;;22.98;3.67;;;;;;;;;;5049106;28;20048;-79
2023/12/20 02:50:11;;;;;;;23.85;3.08;;;;;;;;;;5063539;28;20510;-77
2023/12/20 02:52:37;;;;;;;26.15;3.30;;;;;;;;;;5052370;28;20044;-77
2023/12/20 02:55:03;;;;;;;26.80;3.45;;;;;;;;;;5066786;28;20036;-76
2023/12/20 02:57:29;;;;;;;25.90;3.58;;;;;;;;;;5066021;28;20071;-77
2023/12/20 02:59:55;;;;;;;25.52;4.57;;;;;;;;;;5035882;28;20125;-76
2023/12/20 03:02:21;;;;;;;32.88;3.75;;;;;;;;;;5069319;28;20032;-77
2023/12/20 03:04:47;;;;;;;21.33;3.45;;;;;;;;;;5066555;28;20084;-77
2023/12/20 03:07:13;;;;;;;24.10;3.30;;;;;;;;;;5048821;28;20040;-76
2023/12/20 03:09:39;;;;;;;26.60;3.75;;;;;;;;;;5035396;28;20044;-77
2023/12/20 03:12:05;;;;;;;21.83;4.10;;;;;;;;;;5049871;28;20752;-77
2023/12/20 03:14:31;;;;;;;19.88;3.47;;;;;;;;;;5068964;28;20498;-76
2023/12/20 03:16:57;;;;;;;25.67;2.65;;;;;;;;;;5050676;28;20052;-77
2023/12/20 03:19:23;;;;;;;23.30;2.72;;;;;;;;;;5048380;28;20522;-77
2023/12/20 03:21:49;;;;;;;18.00;2.75;;;;;;;;;;5050693;28;20036;-80
2023/12/20 03:24:16;;;;;;;21.90;3.25;;;;;;;;;;5069674;28;20044;-80
2023/12/20 03:26:42;;;;;;;31.00;3.42;;;;;;;;;;5063368;28;20052;-80
2023/12/20 03:29:08;;;;;;;24.48;4.13;;;;;;;;;;5052433;28;20495;-79
2023/12/20 03:31:34;;;;;;;26.33;3.53;;;;;;;;;;5067551;28;20044;-79
2023/12/20 03:34:00;;;;;;;29.13;3.92;;;;;;;;;;5050940;28;20243;-80
2023/12/20 03:36:26;;;;;;;30.75;3.53;;;;;;;;;;5066507;28;20052;-79
2023/12/20 03:38:53;;;;;;;31.92;4.65;;;;;;;;;;5051587;28;20055;-79
2023/12/20 03:41:19;;;;;;;31.15;4.53;;;;;;;;;;5048458;28;20127;-79
2023/12/20 03:43:45;;;;;;;32.95;5.28;;;;;;;;;;5049845;28;20047;-80
2023/12/20 03:46:11;;;;;;;33.25;4.90;;;;;;;;;;5051697;28;20043;-80
2023/12/20 03:48:37;;;;;;;39.78;5.20;;;;;;;;;;5067630;28;20045;-80
2023/12/20 03:51:03;;;;;;;32.03;2.88;;;;;;;;;;5049070;28;20136;-80
2023/12/20 03:53:29;;;;;;;23.50;3.67;;;;;;;;;;5036650;28;20137;-81
2023/12/20 03:55:55;;;;;;;28.52;3.85;;;;;;;;;;5050532;28;20057;-80
2023/12/20 03:58:21;;;;;;;27.77;3.70;;;;;;;;;;5064777;28;20058;-80
2023/12/20 04:00:48;;;;;;;25.77;3.22;;;;;;;;;;5068226;28;20067;-80
2023/12/20 04:03:14;;;;;;;16.63;3.05;;;;;;;;;;5065678;28;20036;-80
2023/12/20 04:05:41;;;;;;;24.17;3.22;;;;;;;;;;5048217;28;20040;-80
2023/12/20 04:08:08;;;;;;;18.92;3.55;;;;;;;;;;5048868;28;20032;-80
2023/12/20 04:10:34;;;;;;;21.00;2.80;;;;;;;;;;5066105;28;20040;-80
2023/12/20 04:13:00;;;;;;;24.67;3.22;;;;;;;;;;5064903;28;20043;-83
2023/12/20 04:15:26;;;;;;;24.17;3.95;;;;;;;;;;5047052;28;20104;-89
2023/12/20 04:17:52;;;;;;;23.60;4.38;;;;;;;;;;5048682;28;20402;-85
2023/12/20 04:20:18;;;;;;;18.40;2.97;;;;;;;;;;5050713;28;20039;-88
2023/12/20 04:22:44;;;;;;;26.38;5.45;;;;;;;;;;5068532;28;20032;-88
2023/12/20 04:25:10;;;;;;;27.45;2.85;;;;;;;;;;5036109;28;20038;-86
2023/12/20 04:27:36;;;;;;;25.02;3.20;;;;;;;;;;5066313;28;20139;-87
2023/12/20 04:30:03;;;;;;;23.38;3.30;;;;;;;;;;5052058;28;20146;-83
2023/12/20 04:32:29;;;;;;;39.85;7.43;;;;;;;;;;5070519;28;20055;-90
2023/12/20 04:34:56;;;;;;;32.00;3.92;;;;;;;;;;5048226;28;20044;-90
2023/12/20 04:37:22;;;;;;;23.35;3.65;;;;;;;;;;5063076;28;20052;-87
2023/12/20 04:39:48;;;;;;;31.83;4.25;;;;;;;;;;5062461;28;20123;-88
2023/12/20 04:42:14;;;;;;;33.63;3.58;;;;;;;;;;5045628;28;20040;-84
2023/12/20 04:44:40;;;;;;;28.33;3.83;;;;;;;;;;5053456;28;20036;-90
2023/12/20 04:47:06;;;;;;;24.73;4.25;;;;;;;;;;5050175;28;20071;-85
2023/12/20 04:49:32;;;;;;;28.70;3.45;;;;;;;;;;5052260;28;20495;-90
2023/12/20 04:51:58;;;;;;;33.80;4.85;;;;;;;;;;5067607;28;20245;-89
2023/12/20 04:54:24;;;;;;;34.15;3.90;;;;;;;;;;5051591;28;20118;-89
2023/12/20 04:56:50;;;;;;;35.58;4.95;;;;;;;;;;5046808;28;20051;-82
2023/12/20 04:59:17;;;;;;;37.20;5.72;;;;;;;;;;5064716;28;20028;-86
2023/12/20 05:01:43;;;;;;;23.08;4.15;;;;;;;;;;5066856;28;20035;-89
2023/12/20 05:04:09;;;;;;;25.92;4.25;;;;;;;;;;5048632;28;20040;-84
2023/12/20 05:06:35;;;;;;;29.20;4.05;;;;;;;;;;5047007;28;20047;-86
2023/12/20 05:09:01;;;;;;;28.33;4.32;;;;;;;;;;5058924;28;20041;-88
2023/12/20 05:11:27;;;;;;;34.03;6.03;;;;;;;;;;5049699;28;20048;-86
2023/12/20 05:13:53;;;;;;;21.90;3.65;;;;;;;;;;5048169;28;20044;-85
2023/12/20 05:16:19;;;;;;;29.08;3.88;;;;;;;;;;5048998;28;20043;-87
2023/12/20 05:18:45;;;;;;;26.95;4.10;;;;;;;;;;5065768;28;20036;-80
2023/12/20 05:21:12;;;;;;;36.55;4.38;;;;;;;;;;5048111;28;20518;-89
2023/12/20 05:23:41;;;;;;;36.28;3.83;;;;;;;;;;5048703;28;20040;-89
2023/12/20 05:26:07;;;;;;;29.23;4.10;;;;;;;;;;5049793;28;20044;-86
2023/12/20 05:28:33;;;;;;;27.67;4.78;;;;;;;;;;5047852;28;20060;-88
2023/12/20 05:31:02;;;;;;;27.15;4.07;;;;;;;;;;5049660;28;20078;-87
2023/12/20 05:33:28;;;;;;;22.23;4.03;;;;;;;;;;5067445;28;20135;-89
2023/12/20 05:35:54;;;;;;;31.05;4.97;;;;;;;;;;5031898;28;20048;-85
2023/12/20 05:38:20;;;;;;;32.72;4.13;;;;;;;;;;5048503;28;20055;-87
2023/12/20 05:40:46;;;;;;;21.85;4.15;;;;;;;;;;5066176;28;20101;-87
2023/12/20 05:43:12;;;;;;;23.60;3.72;;;;;;;;;;5068207;28;20040;-81
2023/12/20 05:45:39;;;;;;;24.92;4.10;;;;;;;;;;5049107;28;20081;-80
2023/12/20 05:48:06;;;;;;;32.63;4.20;;;;;;;;;;5046443;28;20147;-82
2023/12/20 05:50:32;;;;;;;35.50;4.53;;;;;;;;;;5033875;28;20356;-82
2023/12/20 05:52:58;;;;;;;25.65;3.65;;;;;;;;;;5065840;28;20075;-82
2023/12/20 05:55:24;;;;;;;23.48;3.30;;;;;;;;;;5046489;28;20271;-81
2023/12/20 05:57:50;;;;;;;24.70;4.50;;;;;;;;;;5063067;28;20532;-81
2023/12/20 06:00:17;;;;;;;24.73;3.85;;;;;;;;;;5047133;28;20042;-81
2023/12/20 06:02:43;;;;;;;32.35;4.03;;;;;;;;;;5051459;28;20520;-80
2023/12/20 06:05:09;;;;;;;27.67;4.72;;;;;;;;;;5051669;28;20040;-80
2023/12/20 06:07:36;;;;;;;28.88;5.07;;;;;;;;;;5071653;28;20501;-81
2023/12/20 06:10:02;;;;;;;28.30;5.05;;;;;;;;;;5053278;28;20036;-81
2023/12/20 06:12:28;;;;;;;37.20;3.60;;;;;;;;;;5053273;28;20101;-80
2023/12/20 06:14:55;;;;;;;33.63;4.65;;;;;;;;;;5050608;28;20040;-80
2023/12/20 06:17:21;;;;;;;27.48;4.55;;;;;;;;;;5054907;28;20047;-80
2023/12/20 06:19:48;;;;;;;30.30;5.47;;;;;;;;;;5054068;28;20040;-80
2023/12/20 06:22:14;;;;;;;36.22;4.28;;;;;;;;;;5052519;28;20039;-81
2023/12/20 06:24:40;;;;;;;31.17;5.10;;;;;;;;;;5070678;28;20047;-80
2023/12/20 06:27:06;;;;;;;34.13;4.80;;;;;;;;;;5052830;28;20068;-79
2023/12/20 06:29:32;;;;;;;35.55;5.13;;;;;;;;;;5050119;28;20048;-79
2023/12/20 06:31:58;;;;;;;32.10;4.45;;;;;;;;;;5069819;28;20040;-80
2023/12/20 06:34:24;;;;;;;31.55;5.18;;;;;;;;;;5037904;28;20047;-80
2023/12/20 06:36:50;;;;;;;35.05;4.55;;;;;;;;;;5071001;28;20070;-81
2023/12/20 06:39:16;;;;;;;34.13;4.03;;;;;;;;;;5051140;28;20038;-81
2023/12/20 06:41:43;;;;;;;27.95;4.38;;;;;;;;;;5054136;28;20094;-81
2023/12/20 06:44:09;;;;;;;31.85;5.68;;;;;;;;;;5056873;28;20147;-81
2023/12/20 06:46:35;;;;;;;30.45;4.43;;;;;;;;;;5071432;28;20092;-81
2023/12/20 06:49:01;;;;;;;28.77;4.10;;;;;;;;;;5051615;28;20039;-81
2023/12/20 06:51:28;;;;;;;42.83;5.88;;;;;;;;;;5052223;28;20619;-80
2023/12/20 06:53:54;;;;;;;28.30;5.30;;;;;;;;;;5054117;28;20036;-80
2023/12/20 06:56:20;;;;;;;35.50;5.05;;;;;;;;;;5053505;28;20105;-79
2023/12/20 06:58:47;;;;;;;35.13;5.03;;;;;;;;;;5055681;28;20028;-80
2023/12/20 07:01:14;;;;;;;36.78;5.40;;;;;;;;;;5070810;28;20040;-80
2023/12/20 07:03:40;;;;;;;33.90;5.07;;;;;;;;;;5070568;28;20040;-81
2023/12/20 07:06:07;;;;;;;41.55;6.82;;;;;;;;;;5042357;28;20096;-80
2023/12/20 07:08:33;;;;;;;28.83;3.92;;;;;;;;;;5051121;28;20039;-81
2023/12/20 07:10:59;;;;;;;31.52;5.05;;;;;;;;;;5049483;28;20534;-81
2023/12/20 07:13:25;;;;;;;26.02;5.20;;;;;;;;;;5054824;28;20174;-80
2023/12/20 07:15:51;;;;;;;26.98;4.70;;;;;;;;;;5047032;28;20040;-80
2023/12/20 07:18:17;;;;;;;28.05;4.05;;;;;;;;;;5037119;28;20052;-80
2023/12/20 07:20:43;;;;;;;28.83;6.35;;;;;;;;;;5069974;28;20043;-80
2023/12/20 07:23:10;;;;;;;31.45;5.95;;;;;;;;;;5070901;28;20040;-80
2023/12/20 07:25:36;;;;;;;30.90;4.68;;;;;;;;;;5063533;28;20036;-80
2023/12/20 07:28:02;;;;;;;28.95;4.20;;;;;;;;;;5033686;28;20090;-80
2023/12/20 07:30:28;;;;;;;38.85;6.07;;;;;;;;;;5052469;28;20044;-80
2023/12/20 07:32:54;;;;;;;33.70;6.47;;;;;;;;;;5070135;28;20372;-80
2023/12/20 07:35:20;;;;;;;28.30;4.97;;;;;;;;;;5051100;28;20408;-79
2023/12/20 07:37:46;;;;;;;32.08;6.00;;;;;;;;;;5053227;28;20042;-80
2023/12/20 07:40:12;;;;;;;28.08;4.95;;;;;;;;;;5051762;28;20062;-81
2023/12/20 07:42:38;;;;;;;30.90;4.30;;;;;;;;;;5052995;28;20043;-80
2023/12/20 07:45:05;;;;;;;30.92;4.68;;;;;;;;;;5051789;28;20113;-81
2023/12/20 07:47:31;;;;;;;29.58;6.95;;;;;;;;;;5050287;28;20071;-81
2023/12/20 07:49:57;;;;;;;29.63;5.18;;;;;;;;;;5051301;28;20051;-81
2023/12/20 07:52:23;;;;;;;31.30;5.55;;;;;;;;;;5050948;28;20101;-81
2023/12/20 07:54:49;;;;;;;36.05;5.75;;;;;;;;;;5050922;28;20063;-81
2023/12/20 07:57:15;;;;;;;35.30;5.95;;;;;;;;;;5066873;28;20051;-81
2023/12/20 07:59:41;;;;;;;38.85;5.45;;;;;;;;;;5039822;28;20486;-81
2023/12/20 08:02:07;;;;;;;35.90;5.18;;;;;;;;;;5053256;28;20514;-79
2023/12/20 08:04:33;;;;;;;27.23;5.15;;;;;;;;;;5053158;28;20590;-79
2023/12/20 08:07:00;;;;;;;27.60;4.78;;;;;;;;;;5060604;28;20496;-79
2023/12/20 08:09:26;;;;;;;22.73;4.20;;;;;;;;;;5069207;28;20048;-79
2023/12/20 08:11:52;;;;;;;31.42;5.20;;;;;;;;;;5068784;28;20040;-79
2023/12/20 08:14:18;;;;;;;32.83;5.50;;;;;;;;;;5051383;28;20044;-79
2023/12/20 08:16:44;;;;;;;27.02;4.38;;;;;;;;;;5068956;28;20040;-79
2023/12/20 08:19:10;;;;;;;31.40;4.70;;;;;;;;;;5069837;28;20040;-79
2023/12/20 08:21:36;;;;;;;39.80;5.88;;;;;;;;;;5049535;28;20036;-78
2023/12/20 08:24:03;;;;;;;39.72;4.90;;;;;;;;;;5052930;28;20085;-78
2023/12/20 08:26:29;;;;;;;39.08;5.35;;;;;;;;;;5067161;28;20040;-77
2023/12/20 08:28:55;;;;;;;10.43;1.85;;;;;;;;;;5049970;28;20099;-77
2023/12/20 08:31:21;;;;;;;11.18;1.88;;;;;;;;;;5056051;28;20042;-78
2023/12/20 08:33:48;;;;;;;20.13;2.35;;;;;;;;;;5051802;28;20053;-79
2023/12/20 08:36:15;;;;;;;16.60;3.30;;;;;;;;;;5051182;28;20051;-79
2023/12/20 08:38:41;;;;;;;23.27;2.40;;;;;;;;;;5068535;28;20050;-78
2023/12/20 08:41:07;;;;;;;15.30;2.53;;;;;;;;;;5068001;28;20044;-79
2023/12/20 08:43:36;;;;;;;12.05;2.05;;;;;;;;;;5068274;28;20113;-79
2023/12/20 08:46:03;;;;;;;12.82;1.65;;;;;;;;;;5049707;28;20148;-79
2023/12/20 08:48:29;;;;;;;13.68;2.72;;;;;;;;;;5050249;28;20089;-78
2023/12/20 08:50:55;;;;;;;13.88;2.03;;;;;;;;;;5068427;28;20039;-77
2023/12/20 08:53:21;;;;;;;19.63;1.83;;;;;;;;;;5046453;28;20047;-78
2023/12/20 08:55:47;;;;;;;9.68;1.45;;;;;;;;;;5037820;28;20156;-79
2023/12/20 08:58:14;;;;;;;9.18;1.38;;;;;;;;;;5049619;28;20443;-80
2023/12/20 09:00:40;;;;;;;19.85;1.90;;;;;;;;;;5039879;28;20387;-80
2023/12/20 09:03:06;;;;;;;14.15;1.45;;;;;;;;;;5064315;28;20088;-81
2023/12/20 09:05:32;;;;;;;13.20;2.42;;;;;;;;;;5034295;28;20439;-81
2023/12/20 09:07:58;;;;;;;15.48;2.22;;;;;;;;;;5067079;28;20040;-82
2023/12/20 09:10:24;;;;;;;14.18;1.50;;;;;;;;;;5051037;28;20119;-81
2023/12/20 09:12:51;;;;;;;18.95;2.30;;;;;;;;;;5065821;28;20483;-81
2023/12/20 09:15:17;;;;;;;25.42;1.85;;;;;;;;;;5070616;28;20480;-82
2023/12/20 09:17:43;;;;;;;15.40;1.35;;;;;;;;;;5047233;28;20511;-83
2023/12/20 09:20:10;;;;;;;12.57;1.90;;;;;;;;;;5053373;28;20089;-82
2023/12/20 09:22:38;;;;;;;12.88;1.40;;;;;;;;;;5041763;28;20032;-88
2023/12/20 09:25:04;;;;;;;15.15;1.30;;;;;;;;;;5056158;28;20036;-88
2023/12/20 09:27:31;;;;;;;18.73;1.95;;;;;;;;;;5038741;28;20448;-88
2023/12/20 09:29:57;;;;;;;16.25;1.38;;;;;;;;;;5068711;28;20499;-87
2023/12/20 09:32:23;;;;;;;17.25;2.63;;;;;;;;;;5052193;28;20046;-84
2023/12/20 09:34:49;;;;;;;13.30;1.88;;;;;;;;;;5035894;28;20051;-86
2023/12/20 09:37:15;;;;;;;15.65;1.30;;;;;;;;;;5050051;28;20492;-86
2023/12/20 09:39:41;;;;;;;13.02;1.80;;;;;;;;;;5070714;28;20137;-87
2023/12/20 09:42:08;;;;;;;7.38;1.33;;;;;;;;;;5038891;28;20040;-86
2023/12/20 09:44:35;;;;;;;19.75;2.72;;;;;;;;;;5037671;28;20072;-86
2023/12/20 09:47:02;;;;;;;23.23;2.67;;;;;;;;;;5055674;28;20071;-86
2023/12/20 09:49:30;;;;;;;18.88;2.22;;;;;;;;;;5068489;28;20035;-85
2023/12/20 09:51:57;;;;;;;10.73;1.80;;;;;;;;;;5055010;28;20040;-87
2023/12/20 09:54:24;;;;;;;15.27;1.95;;;;;;;;;;5071666;28;20123;-86
2023/12/20 09:56:50;;;;;;;12.98;1.83;;;;;;;;;;5056301;28;20071;-86
2023/12/20 09:59:16;;;;;;;17.27;1.80;;;;;;;;;;5071297;28;20028;-84
2023/12/20 10:01:43;;;;;;;14.57;2.20;;;;;;;;;;5070113;28;20123;-87
2023/12/20 10:04:12;;;;;;;21.95;2.53;;;;;;;;;;5054882;28;20048;-88
2023/12/20 10:06:40;;;;;;;18.85;2.15;;;;;;;;;;5048429;28;20534;-87
2023/12/20 10:09:06;;;;;;;18.83;2.47;;;;;;;;;;5068305;28;20051;-84
2023/12/20 10:11:32;;;;;;;26.70;2.85;;;;;;;;;;5067502;28;20066;-77
2023/12/20 10:14:01;;;;;;;19.65;2.83;;;;;;;;;;5070315;28;20506;-76
2023/12/20 10:16:28;;;;;;;22.33;2.38;;;;;;;;;;5065364;28;20051;-77
2023/12/20 10:18:54;;;;;;;19.20;2.72;;;;;;;;;;5069287;28;20711;-79
2023/12/20 10:21:21;;;;;;;20.90;2.95;;;;;;;;;;5072397;28;20040;-76
2023/12/20 10:23:48;;;;;;;26.65;3.10;;;;;;;;;;5067811;28;20097;-77
2023/12/20 10:26:24;;;;;;;19.05;2.58;;;;;;;;;;5053376;28;20110;-77
2023/12/20 10:28:51;;;;;;;29.15;3.80;;;;;;;;;;5047759;28;20102;-77
2023/12/20 10:31:28;;;;;;;20.52;4.72;;;;;;;;;;5052038;28;20043;-77
2023/12/20 10:33:54;;;;;;;22.10;6.45;;;;;;;;;;5072865;28;20104;-81
2023/12/20 10:36:20;;;;;;;17.67;2.83;;;;;;;;;;5052040;28;20407;-81
2023/12/20 10:38:47;;;;;;;26.27;3.85;;;;;;;;;;5071393;28;20119;-82
2023/12/20 10:41:17;;;;;;;19.48;3.15;;;;;;;;;;5050386;28;20093;-81
2023/12/20 10:43:43;;;;;;;23.95;2.85;;;;;;;;;;5066822;28;20032;-81
2023/12/20 10:46:09;;;;;;;25.88;3.55;;;;;;;;;;5050962;28;20040;-81
2023/12/20 10:48:36;;;;;;;17.40;3.15;;;;;;;;;;5049323;28;20535;-81
2023/12/20 10:51:03;;;;;;;25.70;3.53;;;;;;;;;;5070300;28;21451;-81
2023/12/20 10:53:30;;;;;;;23.38;2.75;;;;;;;;;;5049980;28;20103;-81
2023/12/20 10:55:59;;;;;;;24.83;4.75;;;;;;;;;;5054020;28;20043;-82
2023/12/20 10:58:26;;;;;;;25.55;3.17;;;;;;;;;;5053535;28;20495;-83
2023/12/20 11:00:56;;;;;;;27.02;3.80;;;;;;;;;;5054376;28;20101;-82
2023/12/20 11:03:24;;;;;;;19.02;2.70;;;;;;;;;;5058021;28;20495;-81
2023/12/20 11:05:54;;;;;;;25.25;3.65;;;;;;;;;;5053846;28;20102;-81
2023/12/20 11:08:23;;;;;;;18.60;3.67;;;;;;;;;;5057181;28;20064;-81
2023/12/20 11:10:57;;;;;;;18.17;2.90;;;;;;;;;;5067075;28;20062;-83
2023/12/20 11:13:56;;;;;;;19.13;3.15;;;;;;;;;;5070168;28;20291;-81
2023/12/20 11:16:22;;;;;;;20.42;2.97;;;;;;;;;;5022183;28;20403;-81
2023/12/20 11:18:51;;;;;;;19.60;2.85;;;;;;;;;;5055755;28;20403;-80
2023/12/20 11:21:17;;;;;;;22.17;2.92;;;;;;;;;;5075464;28;20073;-81
2023/12/20 11:23:43;;;;;;;25.92;5.00;;;;;;;;;;5067992;28;20127;-81
2023/12/20 11:26:09;;;;;;;32.15;4.13;;;;;;;;;;5052001;28;20070;-81
2023/12/20 11:28:35;;;;;;;25.90;4.80;;;;;;;;;;5038295;28;20111;-81
2023/12/20 11:31:02;;;;;;;17.00;3.50;;;;;;;;;;5073349;28;20487;-81
2023/12/20 11:33:36;;;;;;;18.98;3.40;;;;;;;;;;5069522;28;20114;-80
2023/12/20 11:36:02;;;;;;;20.83;4.82;;;;;;;;;;5068803;28;20427;-80
2023/12/20 11:38:36;;;;;;;24.33;4.95;;;;;;;;;;5059097;28;20479;-81
2023/12/20 11:41:03;;;;;;;;;;;;;;;;;;5070668;28;20484;-80
2023/12/20 11:43:31;;;;;;;33.78;5.05;;;;;;;;;;5053208;28;19919;-81
2023/12/20 11:46:03;;;;;;;24.02;4.63;;;;;;;;;;5055162;28;20040;-82
2023/12/20 11:48:31;;;;;;;23.85;4.50;;;;;;;;;;5070789;28;20040;-83
2023/12/20 11:50:57;;;;;;;23.35;4.10;;;;;;;;;;5050177;28;20040;-81
2023/12/20 11:53:23;;;;;;;31.27;5.15;;;;;;;;;;5030181;28;20032;-81
2023/12/20 11:55:50;;;;;;;28.80;5.07;;;;;;;;;;5089591;28;20147;-82
2023/12/20 11:58:16;;;;;;;23.63;3.80;;;;;;;;;;5068408;28;20117;-82
2023/12/20 12:00:43;;;;;;;28.27;3.75;;;;;;;;;;5070411;28;20044;-82
2023/12/20 12:03:09;;;;;;;24.75;2.97;;;;;;;;;;5049238;28;20039;-82
2023/12/20 12:05:38;;;;;;;22.85;3.88;;;;;;;;;;5070313;28;20051;-83
2023/12/20 12:08:05;;;;;;;20.58;3.67;;;;;;;;;;5055293;28;20433;-81
2023/12/20 12:10:31;;;;;;;33.22;4.00;;;;;;;;;;5052168;28;20360;-81
2023/12/20 12:12:57;;;;;;;28.67;4.25;;;;;;;;;;5036441;28;20032;-81
2023/12/20 12:15:23;;;;;;;20.95;3.63;;;;;;;;;;5049338;28;20043;-81
2023/12/20 12:17:53;;;;;;;28.35;4.25;;;;;;;;;;5048631;28;20043;-81
2023/12/20 12:20:20;;;;;;;19.50;4.22;;;;;;;;;;5051264;28;20044;-81
2023/12/20 12:22:50;;;;;;;22.33;2.97;;;;;;;;;;5049152;28;20128;-79
2023/12/20 12:25:16;;;;;;;18.02;3.33;;;;;;;;;;5036974;28;20130;-78
2023/12/20 12:27:43;;;;;;;28.25;3.25;;;;;;;;;;5069980;28;20047;-79
2023/12/20 12:30:09;;;;;;;27.42;3.60;;;;;;;;;;5066969;28;20056;-78
2023/12/20 12:32:36;;;;;;;25.00;4.32;;;;;;;;;;5049686;28;20054;-78
2023/12/20 12:35:09;;;;;;;25.08;4.05;;;;;;;;;;5051456;28;20050;-78
2023/12/20 12:37:38;;;;;;;22.67;4.60;;;;;;;;;;5048648;28;20048;-78
2023/12/20 12:40:05;;;;;;;21.80;3.35;;;;;;;;;;5051725;28;20043;-77
2023/12/20 12:42:31;;;;;;;20.83;3.53;;;;;;;;;;5068271;28;20522;-77
2023/12/20 12:44:57;;;;;;;23.02;3.20;;;;;;;;;;5068824;28;20035;-78
2023/12/20 12:47:23;;;;;;;19.13;2.63;;;;;;;;;;5039761;28;20131;-79
2023/12/20 12:49:53;;;;;;;21.85;3.38;;;;;;;;;;5053918;28;20040;-79
2023/12/20 12:52:19;;;;;;;14.98;2.22;;;;;;;;;;5039506;28;20036;-81
2023/12/20 12:54:45;;;;;;;20.60;2.55;;;;;;;;;;5048972;28;20048;-81
2023/12/20 12:57:12;;;;;;;20.58;2.85;;;;;;;;;;5066038;28;20122;-81
2023/12/20 12:59:38;;;;;;;16.75;2.55;;;;;;;;;;5050071;28;20074;-80
2023/12/20 13:02:04;;;;;;;15.55;2.72;;;;;;;;;;5052544;28;20038;-81
2023/12/20 13:04:30;;;;;;;16.85;2.55;;;;;;;;;;5036489;28;20032;-81
2023/12/20 13:06:57;;;;;;;16.02;2.90;;;;;;;;;;5068297;28;21321;-81
2023/12/20 13:09:23;;;;;;;19.45;2.67;;;;;;;;;;5050570;28;20075;-80
2023/12/20 13:11:49;;;;;;;17.10;2.55;;;;;;;;;;5066959;28;20085;-80
2023/12/20 13:14:16;;;;;;;25.20;3.45;;;;;;;;;;5047989;28;20126;-81
2023/12/20 13:16:44;;;;;;;22.33;3.92;;;;;;;;;;5033393;28;20092;-81
2023/12/20 13:19:10;;;;;;;22.30;2.83;;;;;;;;;;5048265;28;20037;-81
2023/12/20 13:21:37;;;;;;;21.00;3.65;;;;;;;;;;5049051;28;20067;-81
2023/12/20 13:24:03;;;;;;;12.75;3.00;;;;;;;;;;5064646;28;20039;-81
2023/12/20 13:26:29;;;;;;;24.35;4.05;;;;;;;;;;5037256;28;20055;-81
2023/12/20 13:28:55;;;;;;;19.15;2.25;;;;;;;;;;5048957;28;20048;-81
2023/12/20 13:31:22;;;;;;;26.40;3.53;;;;;;;;;;5063453;28;20048;-81
2023/12/20 13:33:48;;;;;;;25.95;4.05;;;;;;;;;;5069532;28;20074;-88
2023/12/20 13:36:14;;;;;;;18.25;2.63;;;;;;;;;;5035817;28;20518;-87
2023/12/20 13:38:40;;;;;;;24.17;2.78;;;;;;;;;;5067628;28;20083;-88
2023/12/20 13:41:06;;;;;;;18.80;2.67;;;;;;;;;;5050767;28;20059;-86
2023/12/20 13:43:33;;;;;;;12.88;2.33;;;;;;;;;;5051272;28;20040;-84
2023/12/20 13:45:59;;;;;;;13.80;2.90;;;;;;;;;;5048306;28;20038;-86
2023/12/20 13:48:25;;;;;;;18.05;2.38;;;;;;;;;;5068240;28;20040;-85
2023/12/20 13:50:52;;;;;;;11.90;2.05;;;;;;;;;;5051604;28;20514;-87
2023/12/20 13:53:19;;;;;;;16.50;2.65;;;;;;;;;;5068932;28;20036;-88
2023/12/20 13:55:45;;;;;;;17.38;2.88;;;;;;;;;;5063402;28;20185;-89
2023/12/20 13:58:11;;;;;;;14.32;2.28;;;;;;;;;;5065803;28;20047;-86
2023/12/20 14:00:37;;;;;;;17.17;2.72;;;;;;;;;;5034104;28;20542;-86
2023/12/20 14:03:04;;;;;;;10.07;1.95;;;;;;;;;;5031742;28;20044;-82
2023/12/20 14:05:30;;;;;;;19.73;2.35;;;;;;;;;;5069143;28;20138;-82
2023/12/20 14:08:00;;;;;;;18.80;3.25;;;;;;;;;;5050083;28;20398;-82
2023/12/20 14:10:26;;;;;;;15.75;2.53;;;;;;;;;;5049039;28;20090;-82
2023/12/20 14:12:52;;;;;;;13.98;2.17;;;;;;;;;;5048564;28;20043;-82
2023/12/20 14:15:19;;;;;;;30.48;6.60;;;;;;;;;;5034137;28;21828;-82
2023/12/20 14:17:45;;;;;;;16.42;3.17;;;;;;;;;;5046821;28;20054;-83
2023/12/20 14:20:14;;;;;;;13.18;2.25;;;;;;;;;;5065127;28;21410;-82
2023/12/20 14:22:43;;;;;;;17.42;2.35;;;;;;;;;;5049627;28;20079;-82
2023/12/20 14:25:13;;;;;;;14.38;2.35;;;;;;;;;;5052800;28;20040;-83
2023/12/20 14:27:40;;;;;;;14.52;1.90;;;;;;;;;;5051105;28;20121;-82